Terminal Aerodrome Forecast
Issued by NWS

Home | Current Version | Previous Version | Text Only | Print | Product List | Glossary On
Versions: 1 2 3 4 5 6 7 8 9 10 11 12 13 14 15 16
000
FTUS44 KJAN 290852 AAA
TAFHKS
TAF AMD
KHKS 290852Z 2909/3006 10006KT P6SM BKN025
     FM291500 18011G17KT P6SM SCT050 SCT250
     FM300000 17009KT P6SM SCT050 BKN250=

USA.gov is the U.S. government's official web portal to all federal, state and local government web resources and services.